Portada
METAR-TAF:

METAR-TAF

Aeroports :

São Pedro da Aldeia, Rio de Janeiro, Brasil

latitud: 22-49S, longitud: 042-06W, altitud: 10 m

Observació

L'informe es va fer fa 3 hores i 26 minuts, a les 21:00 UTC
Vent 5 kt del Est/Nord-Est
Temperatura 27°C
Humitat 74%
Pressió 1010 hPa
Visibilitat 10 km o més
sense núvols per sota de 1500 mi sense presència de cumulonimbus.

METAR: SBES 212100Z 07005KT CAVOK 27/22 Q1010

Hora: 21:26 (00:26 UTC)


TAF: manca

Observacions i pronòstics meteorològics de més de 4000 aeroports (METAR i TAF).

Les estacions disponibles són els punts grocs i vermells al mapa.

Posi el ratolí al punt desitjat per veure el nom de l'estació.

Feu clic per veure les observacions i els pronòstics meteorològics.

Per canviar el mapa: feu clic els botons verds amb una creu de color negre per apropar; al botó verd amb un guió per allunyar la imatge; o en les fletxes verdes per a mapes adjacents.


METAR-TAF: